createdAt,value
2023-02-19T00:03:23.513Z,81.16
2023-02-19T00:08:27.114Z,81.39
2023-02-19T00:13:31.450Z,81.48
2023-02-19T00:18:35.471Z,81.57
2023-02-19T00:23:39.252Z,81.49
2023-02-19T00:28:42.707Z,81.58
2023-02-19T00:33:47.867Z,81.68
2023-02-19T00:38:51.794Z,81.80
2023-02-19T00:44:01.193Z,81.90
2023-02-19T00:49:07.124Z,81.95
2023-02-19T00:54:12.009Z,81.85
2023-02-19T00:59:16.201Z,81.93
2023-02-19T01:04:19.772Z,81.96
2023-02-19T01:09:23.529Z,81.85
2023-02-19T01:14:27.289Z,82.34
2023-02-19T01:19:30.762Z,82.29
2023-02-19T01:24:34.280Z,82.41
2023-02-19T01:29:38.406Z,82.51
2023-02-19T01:34:42.158Z,82.42
2023-02-19T01:39:45.540Z,82.64
2023-02-19T01:44:49.060Z,82.56
2023-02-19T01:49:57.045Z,82.73
2023-02-19T01:55:03.299Z,82.93
2023-02-19T02:00:10.462Z,83.09
2023-02-19T02:05:25.154Z,83.33
2023-02-19T02:10:29.061Z,83.39
2023-02-19T02:15:45.074Z,83.65
2023-02-19T02:20:56.881Z,83.71
2023-02-19T02:26:36.441Z,83.60
2023-02-19T02:31:50.240Z,83.50
2023-02-19T02:37:03.442Z,83.44
2023-02-19T02:42:25.804Z,83.48
2023-02-19T02:47:45.330Z,83.48
2023-02-19T02:53:11.132Z,83.52
2023-02-19T02:58:16.291Z,83.54
2023-02-19T03:03:23.792Z,83.65
2023-02-19T03:08:37.446Z,83.63
2023-02-19T03:13:59.707Z,83.64
2023-02-19T03:19:21.950Z,83.74
2023-02-19T03:24:50.459Z,83.63
2023-02-19T03:29:57.759Z,83.59
2023-02-19T03:35:07.311Z,83.55
2023-02-19T03:40:11.929Z,83.60
2023-02-19T03:45:21.635Z,83.38
2023-02-19T03:50:30.101Z,83.40
2023-02-19T03:55:51.728Z,83.43
2023-02-19T04:00:59.819Z,83.43
2023-02-19T04:06:07.845Z,83.58
2023-02-19T04:11:12.537Z,83.61
2023-02-19T04:16:22.084Z,83.69
2023-02-19T04:21:29.550Z,83.74
2023-02-19T04:26:34.086Z,83.83
2023-02-19T04:31:38.925Z,83.77
2023-02-19T04:36:42.235Z,83.63
2023-02-19T04:41:45.856Z,83.60
2023-02-19T04:46:49.983Z,83.65
2023-02-19T04:51:53.502Z,83.61
2023-02-19T04:56:57.949Z,83.37
2023-02-19T05:02:01.455Z,83.51
2023-02-19T05:07:04.980Z,83.60
2023-02-19T05:12:08.508Z,83.63
2023-02-19T05:17:11.997Z,83.60
2023-02-19T05:22:15.409Z,83.58
2023-02-19T05:27:18.926Z,83.56
2023-02-19T05:32:22.444Z,83.69
2023-02-19T05:37:26.059Z,83.52
2023-02-19T05:42:29.573Z,83.59
2023-02-19T05:47:33.088Z,83.42
2023-02-19T05:52:36.604Z,83.61
2023-02-19T05:57:44.219Z,83.62
2023-02-19T06:02:48.073Z,83.64
2023-02-19T06:07:51.655Z,83.64
2023-02-19T06:12:55.480Z,83.65
2023-02-19T06:17:58.994Z,83.66
2023-02-19T06:23:02.510Z,83.88
2023-02-19T06:28:06.136Z,83.88
2023-02-19T06:33:09.649Z,84.01
2023-02-19T06:38:13.200Z,83.85
2023-02-19T06:43:16.684Z,83.80
2023-02-19T06:48:20.313Z,83.91
2023-02-19T06:53:24.128Z,83.77
2023-02-19T06:58:28.052Z,83.84
2023-02-19T07:03:31.566Z,83.86
2023-02-19T07:08:34.976Z,83.66
2023-02-19T07:13:38.896Z,83.74
2023-02-19T07:18:42.421Z,83.84
2023-02-19T07:23:46.234Z,83.70
2023-02-19T07:28:51.427Z,83.59
2023-02-19T07:33:55.909Z,83.65
2023-02-19T07:39:00.158Z,83.58
2023-02-19T07:44:04.096Z,83.55
2023-02-19T07:49:07.600Z,83.23
2023-02-19T07:54:11.833Z,83.39
2023-02-19T07:59:19.755Z,83.24
2023-02-19T08:04:23.272Z,83.03
2023-02-19T08:09:26.990Z,83.02
2023-02-19T08:14:30.810Z,82.55
2023-02-19T08:19:35.762Z,82.38
2023-02-19T08:24:43.165Z,81.86
2023-02-19T08:29:46.796Z,81.64
2023-02-19T08:34:50.401Z,81.61
2023-02-19T08:39:54.020Z,81.15
2023-02-19T08:44:57.741Z,80.80
2023-02-19T08:50:01.359Z,80.20
2023-02-19T08:55:06.580Z,80.31
2023-02-19T09:00:11.282Z,80.44
2023-02-19T09:05:15.196Z,80.39
2023-02-19T09:10:18.999Z,80.45
2023-02-19T09:15:22.416Z,80.39
2023-02-19T09:20:26.031Z,80.37
2023-02-19T09:25:29.750Z,80.08
2023-02-19T09:30:33.405Z,79.63
2023-02-19T09:35:39.911Z,79.33
2023-02-19T09:40:43.581Z,78.68
2023-02-19T09:45:48.092Z,77.35
2023-02-19T09:50:51.774Z,76.47
2023-02-19T09:55:56.922Z,75.75
2023-02-19T10:01:03.694Z,75.70
2023-02-19T10:06:30.027Z,75.44
2023-02-19T10:11:33.752Z,75.01
2023-02-19T10:16:43.315Z,74.59
2023-02-19T10:21:47.148Z,74.04
2023-02-19T10:26:51.177Z,73.29
2023-02-19T10:32:18.482Z,73.32
2023-02-19T10:37:21.952Z,71.56
2023-02-19T10:42:26.380Z,71.23
2023-02-19T10:47:31.231Z,71.01
2023-02-19T10:52:36.811Z,69.90
2023-02-19T10:57:40.820Z,69.71
2023-02-19T11:02:45.661Z,69.40
2023-02-19T11:07:56.448Z,67.38
2023-02-19T11:13:03.860Z,66.74
2023-02-19T11:18:13.456Z,64.02
2023-02-19T11:23:27.689Z,62.60
2023-02-19T11:28:37.344Z,61.04
2023-02-19T11:33:58.783Z,61.46
2023-02-19T11:39:17.756Z,61.42
2023-02-19T11:44:30.501Z,59.82
2023-02-19T11:49:39.845Z,58.71
2023-02-19T11:54:56.370Z,58.97
2023-02-19T12:00:18.932Z,57.83
2023-02-19T12:05:31.674Z,56.61
2023-02-19T12:11:14.093Z,55.61
2023-02-19T12:16:39.553Z,54.83
2023-02-19T12:21:52.140Z,53.11
2023-02-19T12:27:28.218Z,52.13
2023-02-19T12:32:50.574Z,51.23
2023-02-19T12:38:17.855Z,51.57
2023-02-19T12:43:24.948Z,51.69
2023-02-19T12:48:37.677Z,50.62
2023-02-19T12:54:01.777Z,49.37
2023-02-19T12:59:25.571Z,49.37
2023-02-19T13:04:44.242Z,49.70
2023-02-19T13:09:53.288Z,50.06
2023-02-19T13:15:12.985Z,50.33
2023-02-19T13:20:28.689Z,50.04
2023-02-19T13:25:44.592Z,50.67
2023-02-19T13:31:08.438Z,49.31
2023-02-19T13:36:17.015Z,48.01
2023-02-19T13:41:27.910Z,47.30
2023-02-19T13:46:43.660Z,47.73
2023-02-19T13:51:56.350Z,48.20
2023-02-19T13:57:22.694Z,49.58
2023-02-19T14:02:35.346Z,49.42
2023-02-19T14:07:49.073Z,49.56
2023-02-19T14:12:52.586Z,49.50
2023-02-19T14:17:56.204Z,49.85
2023-02-19T14:23:09.035Z,50.28
2023-02-19T14:28:25.366Z,50.63
2023-02-19T14:33:33.454Z,50.86
2023-02-19T14:38:47.440Z,51.03
2023-02-19T14:43:56.992Z,51.23
2023-02-19T14:49:12.591Z,51.15
2023-02-19T14:54:36.276Z,51.39
2023-02-19T14:59:39.692Z,51.05
2023-02-19T15:04:43.803Z,50.14
2023-02-19T15:10:03.607Z,50.50
2023-02-19T15:15:09.181Z,50.43
2023-02-19T15:20:17.612Z,50.39
2023-02-19T15:25:24.001Z,50.20
2023-02-19T15:30:32.373Z,49.79
2023-02-19T15:35:36.764Z,48.94
2023-02-19T15:40:46.154Z,49.77
2023-02-19T15:45:51.188Z,49.22
2023-02-19T15:51:05.233Z,49.39
2023-02-19T15:56:11.820Z,49.42
2023-02-19T16:01:20.222Z,49.79
2023-02-19T16:06:26.120Z,50.22
2023-02-19T16:11:47.865Z,50.42
2023-02-19T16:16:56.416Z,50.73
2023-02-19T16:22:01.003Z,50.91
2023-02-19T16:27:06.510Z,51.08
2023-02-19T16:32:17.543Z,51.53
2023-02-19T16:37:44.375Z,51.85
2023-02-19T16:42:55.443Z,52.36
2023-02-19T16:47:58.860Z,52.68
2023-02-19T16:53:04.497Z,52.98
2023-02-19T16:58:07.838Z,53.15
2023-02-19T17:03:18.723Z,53.24
2023-02-19T17:08:35.048Z,53.47
2023-02-19T17:13:38.655Z,53.88
2023-02-19T17:18:42.274Z,54.11
2023-02-19T17:23:46.199Z,54.22
2023-02-19T17:28:50.635Z,54.19
2023-02-19T17:33:54.468Z,53.88
2023-02-19T17:38:59.497Z,53.90
2023-02-19T17:44:02.929Z,53.76
2023-02-19T17:49:07.687Z,53.67
2023-02-19T17:54:11.238Z,53.52
2023-02-19T17:59:16.390Z,53.45
2023-02-19T18:04:21.241Z,53.47
2023-02-19T18:09:25.011Z,53.61
2023-02-19T18:14:28.622Z,53.70
2023-02-19T18:19:32.756Z,53.79
2023-02-19T18:24:36.370Z,54.04
2023-02-19T18:29:40.095Z,54.27
2023-02-19T18:34:43.510Z,54.51
2023-02-19T18:39:47.125Z,54.99
2023-02-19T18:44:51.695Z,55.27
2023-02-19T18:49:56.204Z,55.58
2023-02-19T18:54:59.837Z,55.77
2023-02-19T19:00:03.743Z,56.03
2023-02-19T19:05:08.183Z,56.11
2023-02-19T19:10:11.700Z,56.46
2023-02-19T19:15:21.258Z,56.93
2023-02-19T19:20:24.779Z,57.15
2023-02-19T19:25:28.503Z,57.52
2023-02-19T19:30:32.041Z,57.94
2023-02-19T19:35:35.632Z,58.22
2023-02-19T19:40:42.525Z,58.38
2023-02-19T19:45:46.251Z,58.44
2023-02-19T19:50:50.073Z,58.58
2023-02-19T19:55:54.108Z,58.84
2023-02-19T20:00:59.612Z,59.01
2023-02-19T20:06:03.797Z,59.02
2023-02-19T20:11:07.312Z,59.36
2023-02-19T20:16:12.769Z,59.46
2023-02-19T20:21:16.787Z,60.20
2023-02-19T20:26:28.753Z,60.43
2023-02-19T20:31:32.289Z,61.00
2023-02-19T20:36:43.422Z,61.24
2023-02-19T20:41:48.530Z,61.55
2023-02-19T20:46:53.593Z,62.38
2023-02-19T20:52:07.495Z,62.97
2023-02-19T20:57:11.600Z,63.22
2023-02-19T21:02:22.301Z,63.34
2023-02-19T21:07:26.628Z,63.82
2023-02-19T21:12:30.040Z,63.86
2023-02-19T21:17:33.551Z,63.93
2023-02-19T21:22:37.001Z,64.85
2023-02-19T21:27:40.475Z,65.28
2023-02-19T21:32:44.094Z,65.55
2023-02-19T21:37:47.611Z,65.85
2023-02-19T21:42:51.125Z,66.62
2023-02-19T21:47:55.467Z,66.92
2023-02-19T22:00:12.971Z,68.36
2023-02-19T22:05:16.870Z,69.11
2023-02-19T22:10:21.615Z,69.49
2023-02-19T22:15:25.026Z,69.92
2023-02-19T22:20:28.547Z,70.11
2023-02-19T22:25:32.340Z,70.44
2023-02-19T22:30:36.123Z,71.26
2023-02-19T22:35:39.601Z,71.48
2023-02-19T22:40:43.629Z,71.91
2023-02-19T22:45:48.118Z,72.29
2023-02-19T22:50:53.222Z,72.82
2023-02-19T22:55:56.736Z,72.99
2023-02-19T23:01:00.377Z,73.68
2023-02-19T23:06:05.103Z,73.96
2023-02-19T23:11:09.152Z,74.20
2023-02-19T23:16:12.967Z,74.56
2023-02-19T23:21:18.626Z,75.32
2023-02-19T23:26:22.750Z,75.19
2023-02-19T23:31:27.157Z,75.39
2023-02-19T23:36:30.803Z,75.64
2023-02-19T23:41:34.419Z,75.85
2023-02-19T23:46:37.835Z,76.14
2023-02-19T23:51:41.860Z,76.94
2023-02-19T23:56:45.269Z,77.19
